Time;durP1;ratioP1;P1;durP2;ratioP2;P2;SDS_P1;SDS_P2;PMS_P1;PMS_P2;Temp;Humidity;BMP_temperature;BMP_pressure;BME280_temperature;BME280_humidity;BME280_pressure;Samples;Min_cycle;Max_cycle;Signal;HPM_P1;HPM_P2
2022/10/06 00:01:10;;;;;;;8.70;7.00;;;;;;;11.27;100.00;96929.66;6177556;23;20369;-58
2022/10/06 00:03:37;;;;;;;9.13;6.40;;;;;;;11.26;100.00;96947.25;6177908;23;19997;-58
2022/10/06 00:06:03;;;;;;;9.23;7.50;;;;;;;11.24;100.00;96941.25;6177332;23;20054;-58
2022/10/06 00:08:31;;;;;;;7.65;6.75;;;;;;;11.18;100.00;96937.31;6177986;23;20051;-58
2022/10/06 00:10:56;;;;;;;7.93;7.10;;;;;;;11.14;100.00;96942.91;6177361;23;20012;-71
2022/10/06 00:13:23;;;;;;;7.85;7.05;;;;;;;11.09;100.00;96937.97;6177352;23;20009;-58
2022/10/06 00:15:49;;;;;;;14.95;7.57;;;;;;;11.13;100.00;96947.31;6177413;23;20351;-61
2022/10/06 00:18:14;;;;;;;10.98;7.57;;;;;;;11.12;100.00;96944.81;6177659;23;20017;-62
2022/10/06 00:20:42;;;;;;;7.63;6.90;;;;;;;11.09;100.00;96943.25;6177524;23;20604;-62
2022/10/06 00:23:08;;;;;;;13.75;7.53;;;;;;;11.06;100.00;96945.28;6177553;23;20001;-62
2022/10/06 00:25:33;;;;;;;7.80;7.10;;;;;;;11.05;100.00;96941.81;6177904;23;20001;-62
2022/10/06 00:27:59;;;;;;;9.35;7.38;;;;;;;11.01;100.00;96945.63;6178440;23;20024;-62
2022/10/06 00:30:26;;;;;;;9.02;6.55;;;;;;;11.01;100.00;96962.25;6177490;23;20001;-67
2022/10/06 00:33:01;;;;;;;10.85;6.78;;;;;;;11.04;100.00;96950.66;6176696;23;20040;-72
2022/10/06 00:35:33;;;;;;;11.73;7.28;;;;;;;11.05;100.00;96954.97;6177446;23;20001;-63
2022/10/06 00:38:02;;;;;;;8.63;6.82;;;;;;;11.03;100.00;96952.44;6177462;23;20053;-63
2022/10/06 00:40:30;;;;;;;6.97;6.28;;;;;;;10.98;100.00;96962.50;6177212;23;20013;-64
2022/10/06 00:43:04;;;;;;;8.02;6.65;;;;;;;10.95;100.00;96957.44;6177379;23;20005;-63
2022/10/06 00:45:41;;;;;;;8.18;6.85;;;;;;;10.94;100.00;96961.03;6176801;23;19997;-64
2022/10/06 00:48:22;;;;;;;8.05;6.45;;;;;;;10.92;100.00;96962.94;6176809;23;20007;-64
2022/10/06 00:50:50;;;;;;;10.07;7.03;;;;;;;10.93;100.00;96963.78;6177164;23;20008;-66
2022/10/06 00:53:16;;;;;;;9.57;7.18;;;;;;;10.92;100.00;96967.38;6177154;23;20054;-72
2022/10/06 00:55:41;;;;;;;8.65;6.93;;;;;;;10.87;100.00;96975.63;6177648;23;20024;-71
2022/10/06 00:58:08;;;;;;;10.13;7.65;;;;;;;10.87;100.00;96965.91;6177114;23;20013;-72
2022/10/06 01:00:34;;;;;;;8.63;7.47;;;;;;;10.84;100.00;96965.31;6177521;23;20008;-72
2022/10/06 01:03:22;;;;;;;8.63;7.07;;;;;;;10.77;100.00;96964.91;6176936;23;20351;-72
2022/10/06 01:05:50;;;;;;;10.02;7.13;;;;;;;10.74;100.00;96971.25;6177189;23;20001;-70
2022/10/06 01:08:16;;;;;;;8.00;6.97;;;;;;;10.75;100.00;96964.19;6177166;23;20427;-66
2022/10/06 01:10:41;;;;;;;9.57;7.28;;;;;;;10.71;100.00;96966.19;6177900;23;20054;-59
2022/10/06 01:13:09;;;;;;;7.47;6.78;;;;;;;10.72;100.00;96967.03;6177243;23;20005;-67
2022/10/06 01:15:38;;;;;;;7.88;6.80;;;;;;;10.75;100.00;96958.94;6177659;23;20054;-68
2022/10/06 01:18:11;;;;;;;8.77;6.72;;;;;;;10.72;100.00;96961.75;6151220;23;20477;-67
2022/10/06 01:20:44;;;;;;;10.82;6.68;;;;;;;10.71;100.00;96962.72;6177373;23;20046;-67
2022/10/06 01:23:10;;;;;;;9.40;6.47;;;;;;;10.73;100.00;96959.03;6177207;22;20067;-67
2022/10/06 01:25:36;;;;;;;6.72;6.03;;;;;;;10.74;100.00;96960.69;6177437;23;20052;-67
2022/10/06 01:28:03;;;;;;;10.02;6.80;;;;;;;10.71;100.00;96966.19;6177471;23;20465;-59
2022/10/06 01:31:00;;;;;;;6.85;6.22;;;;;;;10.69;100.00;96961.97;6177486;22;20001;-63
2022/10/06 01:33:26;;;;;;;11.02;7.03;;;;;;;10.69;100.00;96961.97;6177167;23;20001;-62
2022/10/06 01:35:52;;;;;;;7.68;6.35;;;;;;;10.65;100.00;96968.44;6177530;22;20059;-62
2022/10/06 01:38:18;;;;;;;8.77;7.03;;;;;;;10.64;100.00;96959.72;6177008;22;20070;-62
2022/10/06 01:40:44;;;;;;;9.43;6.45;;;;;;;10.62;100.00;96963.38;6176952;23;20025;-62
2022/10/06 01:43:10;;;;;;;11.25;6.93;;;;;;;10.60;100.00;96966.97;6177556;23;20324;-63
2022/10/06 01:45:35;;;;;;;7.07;6.40;;;;;;;10.59;100.00;96952.13;6177312;23;20001;-62
2022/10/06 01:48:00;;;;;;;7.22;6.30;;;;;;;10.63;100.00;96944.84;6176868;23;20040;-64
2022/10/06 01:50:26;;;;;;;8.15;6.07;;;;;;;10.67;100.00;96943.69;6176855;23;20005;-59
2022/10/06 01:52:51;;;;;;;7.80;6.20;;;;;;;10.65;100.00;96939.47;6176887;23;20428;-59
2022/10/06 01:55:18;;;;;;;7.32;6.25;;;;;;;10.61;100.00;96933.59;6176782;23;20059;-59
2022/10/06 01:57:43;;;;;;;9.35;6.32;;;;;;;10.57;100.00;96942.66;6177362;23;20009;-59
2022/10/06 02:00:10;;;;;;;7.30;6.55;;;;;;;10.56;100.00;96938.34;6176902;23;20408;-59
2022/10/06 02:02:36;;;;;;;6.93;6.22;;;;;;;10.55;100.00;96929.59;6176205;23;19997;-60
2022/10/06 02:05:01;;;;;;;8.75;7.07;;;;;;;10.52;100.00;96936.88;6177521;22;20001;-59
2022/10/06 02:07:27;;;;;;;9.18;8.07;;;;;;;10.50;100.00;96931.75;6177231;23;20005;-60
2022/10/06 02:09:52;;;;;;;6.93;6.25;;;;;;;10.50;100.00;96926.47;6177112;23;20008;-71
2022/10/06 02:12:18;;;;;;;7.50;6.80;;;;;;;10.52;100.00;96932.47;6176734;23;20001;-71
2022/10/06 02:14:43;;;;;;;7.95;6.20;;;;;;;10.50;100.00;96928.25;6177208;23;20005;-70
2022/10/06 02:17:09;;;;;;;7.35;6.75;;;;;;;10.49;100.00;96937.09;6177707;23;20013;-70
2022/10/06 02:19:34;;;;;;;10.45;7.70;;;;;;;10.49;100.00;96940.56;6176904;23;20459;-70
2022/10/06 02:22:00;;;;;;;8.63;7.93;;;;;;;10.51;100.00;96936.06;6177351;23;20206;-70
2022/10/06 02:24:25;;;;;;;11.30;8.30;;;;;;;10.51;100.00;96943.97;6177450;23;20004;-63
2022/10/06 02:26:51;;;;;;;9.38;7.78;;;;;;;10.50;100.00;96937.00;6176463;23;19997;-60
2022/10/06 02:29:17;;;;;;;8.25;7.15;;;;;;;10.50;100.00;96939.66;6176279;23;20084;-67
2022/10/06 02:31:42;;;;;;;10.85;7.88;;;;;;;10.49;100.00;96945.00;6176977;23;20085;-67
2022/10/06 02:34:08;;;;;;;10.18;8.10;;;;;;;10.49;100.00;96943.19;6177266;22;20009;-67
2022/10/06 02:36:34;;;;;;;10.85;7.20;;;;;;;10.46;100.00;96946.06;6175950;23;20005;-67
2022/10/06 02:38:59;;;;;;;9.55;8.32;;;;;;;10.43;100.00;96935.75;6176684;23;20001;-67
2022/10/06 02:41:25;;;;;;;11.52;7.72;;;;;;;10.37;100.00;96938.81;6176484;23;20058;-66
2022/10/06 02:43:52;;;;;;;8.05;7.25;;;;;;;10.30;100.00;96933.13;6176613;23;20427;-59
2022/10/06 02:46:17;;;;;;;9.32;8.32;;;;;;;10.29;100.00;96929.66;6177054;23;20004;-71
2022/10/06 02:48:43;;;;;;;9.60;7.07;;;;;;;10.29;100.00;96924.41;6176772;23;20458;-67
2022/10/06 02:51:14;;;;;;;6.78;5.90;;;;;;;10.34;100.00;96923.22;6176943;23;20346;-67
2022/10/06 02:53:41;;;;;;;7.47;6.70;;;;;;;10.36;100.00;96922.16;6176755;23;20007;-67
2022/10/06 02:56:14;;;;;;;8.88;6.93;;;;;;;10.34;100.00;96925.88;6177003;23;20005;-67
2022/10/06 02:58:41;;;;;;;9.07;7.82;;;;;;;10.31;100.00;96922.50;6176653;23;20009;-67
2022/10/06 03:01:27;;;;;;;10.23;7.40;;;;;;;10.29;100.00;96919.13;6176769;23;20001;-67
2022/10/06 03:03:53;;;;;;;;;;;;;;;10.25;100.00;96922.09;6176725;23;20001;-66
2022/10/06 03:06:21;;;;;;;7.65;6.40;;;;;;;10.22;100.00;96928.41;6176334;23;19942;-64
2022/10/06 03:08:50;;;;;;;7.10;6.20;;;;;;;10.21;100.00;96929.34;6177203;23;20450;-62
2022/10/06 03:11:20;;;;;;;6.53;5.93;;;;;;;10.20;100.00;96934.75;6176832;23;19997;-62
2022/10/06 03:13:48;;;;;;;6.72;6.13;;;;;;;10.17;100.00;96935.78;6176408;23;20389;-62
2022/10/06 03:16:15;;;;;;;10.70;6.13;;;;;;;10.16;100.00;96934.94;6176830;23;20005;-62
2022/10/06 03:18:51;;;;;;;10.57;5.95;;;;;;;10.14;100.00;96939.47;6176502;23;20402;-62
2022/10/06 03:21:18;;;;;;;6.53;5.78;;;;;;;10.12;100.00;96936.09;6177196;23;20343;-63
2022/10/06 03:23:46;;;;;;;6.38;5.32;;;;;;;10.05;100.00;96937.50;6176795;23;20377;-67
2022/10/06 03:26:14;;;;;;;6.43;5.82;;;;;;;10.08;100.00;96939.91;6176082;23;20455;-67
2022/10/06 03:28:39;;;;;;;6.00;5.40;;;;;;;10.09;100.00;96936.34;6176198;23;20214;-63
2022/10/06 03:31:06;;;;;;;7.28;5.68;;;;;;;10.08;100.00;96939.91;6175980;23;20001;-63
2022/10/06 03:33:33;;;;;;;9.43;5.50;;;;;;;10.07;100.00;96932.97;6176274;23;20069;-63
2022/10/06 03:36:07;;;;;;;5.85;5.07;;;;;;;10.09;100.00;96935.50;6172500;23;20012;-62
2022/10/06 03:38:33;;;;;;;6.22;4.50;;;;;;;10.10;100.00;96935.38;6176069;23;20347;-63
2022/10/06 03:41:15;;;;;;;6.40;4.75;;;;;;;10.11;100.00;96937.06;6176767;23;20084;-62
2022/10/06 03:43:44;;;;;;;5.68;4.80;;;;;;;10.08;100.00;96937.28;6177975;23;19997;-60
2022/10/06 03:46:12;;;;;;;4.93;4.45;;;;;;;10.06;100.00;96938.31;6178217;23;20005;-63
2022/10/06 03:48:38;;;;;;;7.72;4.80;;;;;;;10.01;100.00;96941.31;6177960;23;19997;-63
2022/10/06 03:51:06;;;;;;;4.82;4.43;;;;;;;9.94;100.00;96938.25;6177981;23;20040;-63
2022/10/06 03:53:33;;;;;;;5.40;4.70;;;;;;;9.91;100.00;96941.09;6177537;23;20026;-63
2022/10/06 03:56:05;;;;;;;5.35;4.60;;;;;;;9.86;100.00;96935.34;6178283;22;20013;-63
2022/10/06 03:58:33;;;;;;;5.25;4.78;;;;;;;9.86;100.00;96932.69;6177917;23;20453;-63
2022/10/06 04:01:10;;;;;;;5.72;5.22;;;;;;;9.88;100.00;96928.16;6176991;23;20067;-61
2022/10/06 04:03:35;;;;;;;4.70;4.35;;;;;;;9.87;100.00;96922.06;6177772;23;20343;-59
2022/10/06 04:06:03;;;;;;;5.05;4.57;;;;;;;9.81;100.00;96925.13;6177662;23;20001;-73
2022/10/06 04:08:30;;;;;;;5.57;4.80;;;;;;;9.72;100.00;96926.59;6177741;23;20001;-72
2022/10/06 04:11:08;;;;;;;20.42;16.55;;;;;;;9.67;100.00;96928.72;6177830;23;20001;-71
2022/10/06 04:13:34;;;;;;;6.95;6.25;;;;;;;9.68;100.00;96937.44;6177581;23;20001;-70
2022/10/06 04:16:28;;;;;;;10.75;6.90;;;;;;;9.70;100.00;96933.75;6177641;23;20001;-70
2022/10/06 04:18:56;;;;;;;9.80;5.05;;;;;;;9.68;100.00;96927.75;6176719;23;20051;-69
2022/10/06 04:21:23;;;;;;;8.43;4.90;;;;;;;9.71;100.00;96926.69;6176678;23;20458;-63
2022/10/06 04:23:51;;;;;;;5.85;5.35;;;;;;;9.64;100.00;96923.66;6176329;23;20008;-66
2022/10/06 04:26:18;;;;;;;7.65;5.15;;;;;;;9.68;100.00;96919.88;6177539;23;20001;-64
2022/10/06 04:28:45;;;;;;;6.07;4.88;;;;;;;9.71;100.00;96919.66;6176377;23;20080;-64
2022/10/06 04:31:21;;;;;;;5.32;4.93;;;;;;;9.68;100.00;96919.03;6177718;23;20001;-64
2022/10/06 04:33:50;;;;;;;8.15;6.80;;;;;;;9.59;100.00;96915.22;6176603;23;20005;-64
2022/10/06 04:36:22;;;;;;;11.52;6.97;;;;;;;9.62;100.00;96914.19;6176549;23;20302;-64
2022/10/06 04:38:49;;;;;;;11.57;6.80;;;;;;;9.68;100.00;96921.66;6177726;23;20004;-64
2022/10/06 04:41:17;;;;;;;7.95;6.25;;;;;;;9.68;100.00;96929.53;6176623;23;20001;-63
2022/10/06 04:43:47;;;;;;;16.92;15.15;;;;;;;9.63;100.00;96931.66;6175825;23;20020;-65
2022/10/06 04:46:13;;;;;;;10.95;7.90;;;;;;;9.64;100.00;96928.94;6176875;23;20241;-63
2022/10/06 04:48:38;;;;;;;9.73;6.72;;;;;;;9.66;100.00;96931.44;6176845;23;20027;-63
2022/10/06 04:51:06;;;;;;;8.98;6.43;;;;;;;9.65;100.00;96925.34;6176975;23;20430;-63
2022/10/06 04:53:32;;;;;;;6.40;5.55;;;;;;;9.67;100.00;96928.72;6176477;23;20008;-64
2022/10/06 04:56:15;;;;;;;8.02;6.25;;;;;;;9.66;100.00;96929.66;6151078;23;20060;-63
2022/10/06 04:58:43;;;;;;;6.72;6.03;;;;;;;9.65;100.00;96930.59;6177441;23;20015;-63
2022/10/06 05:01:16;;;;;;;7.85;7.00;;;;;;;9.65;100.00;96935.88;6177464;23;20064;-63
2022/10/06 05:03:43;;;;;;;7.50;6.50;;;;;;;9.67;100.00;96935.75;6177616;23;19993;-58
2022/10/06 05:06:13;;;;;;;7.85;6.63;;;;;;;9.68;100.00;96940.06;6177459;23;20001;-58
2022/10/06 05:08:39;;;;;;;7.10;6.40;;;;;;;9.65;100.00;96938.50;6177607;23;19997;-58
2022/10/06 05:11:10;;;;;;;9.23;5.70;;;;;;;9.65;100.00;96938.50;6177545;23;19997;-59
2022/10/06 05:13:36;;;;;;;6.68;4.90;;;;;;;9.69;100.00;96942.59;6177416;23;20005;-58
2022/10/06 05:16:04;;;;;;;11.40;5.30;;;;;;;9.70;100.00;96940.78;6177495;22;20032;-59
2022/10/06 05:18:30;;;;;;;5.70;5.13;;;;;;;9.70;100.00;96941.66;6177244;23;20078;-59
2022/10/06 05:21:06;;;;;;;7.13;5.38;;;;;;;9.74;100.00;96940.47;6177760;23;20001;-67
2022/10/06 05:23:35;;;;;;;6.95;5.38;;;;;;;9.75;100.00;96942.16;6177661;23;20007;-66
2022/10/06 05:26:00;;;;;;;6.10;5.53;;;;;;;9.74;100.00;96951.00;6177313;23;20037;-66
2022/10/06 05:28:28;;;;;;;5.97;5.28;;;;;;;9.71;100.00;96948.59;6177459;23;20001;-66
2022/10/06 05:31:18;;;;;;;5.75;5.18;;;;;;;9.70;100.00;96946.91;6177537;23;20410;-66
2022/10/06 05:33:43;;;;;;;7.78;5.45;;;;;;;9.72;100.00;96937.13;6177289;23;20011;-66
2022/10/06 05:36:33;;;;;;;5.97;5.00;;;;;;;9.68;100.00;96940.06;6177859;23;20033;-66
2022/10/06 05:38:59;;;;;;;7.70;5.10;;;;;;;9.69;100.00;96942.59;6177052;23;20062;-67
2022/10/06 05:41:30;;;;;;;7.85;5.18;;;;;;;9.68;100.00;96947.94;6177267;23;20001;-58
2022/10/06 05:43:57;;;;;;;8.30;4.85;;;;;;;9.64;100.00;96949.09;6177871;22;20070;-66
2022/10/06 05:46:27;;;;;;;5.88;4.85;;;;;;;9.64;100.00;96939.44;6177399;23;20036;-66
2022/10/06 05:48:57;;;;;;;6.43;5.78;;;;;;;9.60;100.00;96936.19;6176986;23;20015;-66
2022/10/06 05:51:26;;;;;;;11.45;6.13;;;;;;;9.57;100.00;96940.78;6176105;23;20478;-66
2022/10/06 05:53:51;;;;;;;8.07;5.70;;;;;;;9.56;100.00;96939.09;6176763;23;20436;-66
2022/10/06 05:56:23;;;;;;;7.78;5.35;;;;;;;9.53;100.00;96939.31;6176078;23;20008;-66
2022/10/06 05:58:51;;;;;;;8.00;4.80;;;;;;;9.56;100.00;96947.84;6176922;23;20503;-62
2022/10/06 06:01:19;;;;;;;5.70;4.60;;;;;;;9.56;100.00;96944.38;6177270;23;20401;-66
2022/10/06 06:03:53;;;;;;;9.40;5.05;;;;;;;9.52;100.00;96949.00;6176876;23;19997;-67
2022/10/06 06:06:26;;;;;;;7.95;5.50;;;;;;;9.46;100.00;96950.25;6177283;23;20443;-67
2022/10/06 06:08:54;;;;;;;7.22;5.35;;;;;;;9.49;100.00;96958.88;6176895;23;20001;-68
2022/10/06 06:11:26;;;;;;;9.15;4.80;;;;;;;9.53;100.00;96960.34;6176578;23;20435;-68
2022/10/06 06:13:59;;;;;;;6.78;4.68;;;;;;;9.54;100.00;96954.16;6176482;23;20058;-66
2022/10/06 06:16:24;;;;;;;6.53;4.97;;;;;;;9.56;100.00;96965.41;6177264;23;20449;-67
2022/10/06 06:18:50;;;;;;;6.03;4.65;;;;;;;9.56;100.00;96970.66;6176371;23;20017;-60
2022/10/06 06:21:16;;;;;;;7.28;5.10;;;;;;;9.56;100.00;96974.16;6176706;23;20088;-59
2022/10/06 06:23:45;;;;;;;5.63;5.05;;;;;;;9.55;100.00;96975.09;6150697;22;20054;-60
2022/10/06 06:26:16;;;;;;;8.30;5.50;;;;;;;9.57;100.00;96967.09;6177259;23;20395;-60
2022/10/06 06:28:44;;;;;;;10.02;5.38;;;;;;;9.60;100.00;96982.66;6177238;23;20087;-60
2022/10/06 06:31:32;;;;;;;6.13;4.97;;;;;;;9.61;100.00;96968.56;6177243;23;20008;-60
2022/10/06 06:33:59;;;;;;;5.85;5.35;;;;;;;9.64;100.00;96964.88;6176235;23;20026;-58
2022/10/06 06:36:35;;;;;;;10.60;6.22;;;;;;;9.68;100.00;96972.47;6177122;23;20021;-63
2022/10/06 06:39:07;;;;;;;6.55;5.93;;;;;;;9.72;100.00;96968.69;6173432;23;20746;-69
2022/10/06 06:41:38;;;;;;;6.15;5.55;;;;;;;9.78;100.00;96963.94;6175619;23;20005;-59
2022/10/06 06:44:09;;;;;;;7.63;5.68;;;;;;;9.87;100.00;96963.31;6176924;23;20110;-59
2022/10/06 06:46:35;;;;;;;5.85;5.22;;;;;;;9.93;100.00;96970.78;6176979;22;20001;-59
2022/10/06 06:49:05;;;;;;;7.35;5.68;;;;;;;9.98;100.00;96960.75;6176263;23;20054;-59
2022/10/06 06:51:36;;;;;;;8.10;5.13;;;;;;;10.00;100.00;96966.75;6176422;23;20013;-59
2022/10/06 06:54:02;;;;;;;5.35;4.85;;;;;;;10.04;100.00;96960.31;6176208;23;20036;-60
2022/10/06 06:56:33;;;;;;;7.95;5.60;;;;;;;10.08;100.00;96974.13;6176661;23;20005;-65
2022/10/06 06:59:00;;;;;;;7.35;4.75;;;;;;;10.17;100.00;96970.00;6176494;22;20055;-63
2022/10/06 07:01:27;;;;;;;5.63;4.57;;;;;;;10.24;100.00;96973.06;6176182;23;20005;-62
2022/10/06 07:03:55;;;;;;;5.57;5.18;;;;;;;10.32;100.00;96971.56;6175873;23;19997;-63
2022/10/06 07:06:22;;;;;;;11.90;5.25;;;;;;;10.34;100.00;96979.34;6176464;23;20001;-62
2022/10/06 07:08:48;;;;;;;8.50;5.03;;;;;;;10.35;100.00;96978.38;6176074;23;20009;-62
2022/10/06 07:11:21;;;;;;;5.53;4.93;;;;;;;10.34;100.00;96978.50;6176087;23;19998;-62
2022/10/06 07:13:52;;;;;;;5.47;4.95;;;;;;;10.36;100.00;96976.59;6175890;23;20009;-62
2022/10/06 07:27:20;;;;;;;6.13;5.68;;;;;;;10.37;100.00;96975.66;6177580;23;20083;-64
2022/10/06 07:29:45;;;;;;;8.20;5.65;;;;;;;10.36;100.00;96973.97;6176857;23;20402;-64
2022/10/06 07:32:12;;;;;;;8.13;5.53;;;;;;;10.38;100.00;96969.44;6177822;23;20058;-64
2022/10/06 07:34:38;;;;;;;13.40;5.40;;;;;;;10.40;100.00;96972.81;6177628;23;20036;-66
2022/10/06 07:37:03;;;;;;;9.98;5.35;;;;;;;10.45;100.00;96974.19;6177613;23;20054;-64
2022/10/06 07:39:30;;;;;;;6.95;5.10;;;;;;;10.52;100.00;96971.09;6176652;23;20008;-64
2022/10/06 07:41:56;;;;;;;10.65;6.50;;;;;;;10.61;100.00;96959.94;6177184;23;20339;-64
2022/10/06 07:44:22;;;;;;;10.57;6.80;;;;;;;10.73;100.00;96968.72;6177069;23;20001;-64
2022/10/06 07:46:47;;;;;;;9.00;5.65;;;;;;;10.89;100.00;96968.44;6177206;23;20431;-64
2022/10/06 07:49:16;;;;;;;11.48;7.10;;;;;;;11.06;100.00;96963.75;6177156;23;19997;-64
2022/10/06 07:51:42;;;;;;;9.73;7.15;;;;;;;11.19;100.00;96964.50;6177395;23;20508;-64
2022/10/06 07:54:07;;;;;;;9.23;5.75;;;;;;;11.25;100.00;96973.75;6177391;23;20045;-68
2022/10/06 07:56:33;;;;;;;8.93;5.10;;;;;;;11.33;100.00;96966.09;6176780;23;20076;-65
2022/10/06 07:58:58;;;;;;;12.10;4.63;;;;;;;11.44;100.00;96973.19;6176947;23;20028;-60
2022/10/06 08:01:26;;;;;;;6.97;4.03;;;;;;;11.68;100.00;96974.91;6177164;23;20004;-60
2022/10/06 08:03:51;;;;;;;7.07;4.60;;;;;;;11.80;100.00;96978.41;6177061;23;20007;-60
2022/10/06 08:06:18;;;;;;;6.93;4.45;;;;;;;11.96;100.00;96978.91;6177205;23;20072;-60
2022/10/06 08:08:46;;;;;;;4.55;4.15;;;;;;;12.06;100.00;96968.50;6177043;23;20012;-60
2022/10/06 08:11:12;;;;;;;8.15;4.32;;;;;;;12.03;100.00;96974.84;6177070;23;20001;-60
2022/10/06 08:13:41;;;;;;;6.25;3.92;;;;;;;12.09;100.00;96970.09;6150419;23;20013;-65
2022/10/06 08:16:28;;;;;;;4.63;4.25;;;;;;;12.06;100.00;96978.25;6177205;23;20098;-60
2022/10/06 08:18:56;;;;;;;5.80;4.45;;;;;;;12.08;100.00;96971.88;6176536;23;20017;-65
2022/10/06 08:21:28;;;;;;;4.55;3.88;;;;;;;12.15;100.00;96966.97;6176782;23;20058;-65
2022/10/06 08:23:55;;;;;;;5.38;4.13;;;;;;;12.20;100.00;96972.72;6176939;23;20004;-64
2022/10/06 08:26:21;;;;;;;6.80;4.35;;;;;;;12.26;100.00;96968.75;6177023;23;20593;-65
2022/10/06 08:28:49;;;;;;;6.25;4.85;;;;;;;12.36;100.00;96958.31;6177052;23;20009;-65
2022/10/06 08:31:16;;;;;;;4.68;4.15;;;;;;;12.48;100.00;96961.75;6177577;22;20005;-65
2022/10/06 08:33:43;;;;;;;5.25;4.50;;;;;;;12.64;100.00;96956.94;6177160;23;20525;-64
2022/10/06 08:36:13;;;;;;;4.53;3.78;;;;;;;12.70;100.00;96968.78;6177970;22;20001;-66
2022/10/06 08:38:39;;;;;;;5.05;4.50;;;;;;;12.72;100.00;96958.97;6176841;23;20005;-65
2022/10/06 08:41:26;;;;;;;9.32;3.95;;;;;;;12.75;100.00;96962.19;6176719;23;20450;-64
2022/10/06 08:44:04;;;;;;;5.72;4.30;;;;;;;12.90;100.00;96954.78;6176456;23;20013;-64
2022/10/06 08:46:40;;;;;;;8.18;4.80;;;;;;;13.08;100.00;96964.00;6176575;23;20076;-65
2022/10/06 08:49:16;;;;;;;5.07;4.22;;;;;;;13.12;100.00;96963.59;6176330;23;20002;-66
2022/10/06 08:51:48;;;;;;;5.85;4.72;;;;;;;13.20;100.00;96967.44;6177343;23;20009;-65
2022/10/06 08:54:18;;;;;;;5.78;4.32;;;;;;;13.23;100.00;96962.72;6177117;23;20001;-59
2022/10/06 08:56:56;;;;;;;4.50;4.15;;;;;;;13.29;100.00;96971.97;6177335;23;20081;-65
2022/10/06 08:59:21;;;;;;;5.82;5.03;;;;;;;13.42;100.00;96967.34;6176872;23;20017;-65
2022/10/06 09:01:50;;;;;;;6.70;4.43;;;;;;;13.54;100.00;96968.13;6177057;23;20488;-65
2022/10/06 09:04:30;;;;;;;5.35;4.85;;;;;;;13.71;100.00;96961.41;6176748;23;20054;-65
2022/10/06 09:07:06;;;;;;;5.03;4.60;;;;;;;13.92;100.00;96968.50;6177057;23;20341;-65
2022/10/06 09:09:52;;;;;;;5.22;4.82;;;;;;;14.00;100.00;96965.19;6177007;23;19997;-65
2022/10/06 09:12:35;;;;;;;9.23;4.90;;;;;;;14.06;100.00;96964.66;6177528;22;20321;-64
2022/10/06 09:15:45;;;;;;;5.35;4.35;;;;;;;14.10;100.00;96967.88;6176935;23;20425;-72
2022/10/06 09:18:21;;;;;;;7.13;5.57;;;;;;;14.12;100.00;96965.94;6126652;23;20013;-71
2022/10/06 09:20:58;;;;;;;5.88;5.35;;;;;;;14.26;100.00;96959.44;6176716;23;20001;-72
2022/10/06 09:23:47;;;;;;;7.05;6.35;;;;;;;14.32;100.00;96957.09;6177287;23;20509;-71
2022/10/06 09:26:28;;;;;;;6.85;6.25;;;;;;;14.39;100.00;96959.19;6177019;23;20049;-72
2022/10/06 09:28:55;;;;;;;7.53;6.78;;;;;;;14.50;100.00;96958.25;6149893;22;20001;-71
2022/10/06 09:31:39;;;;;;;8.18;5.60;;;;;;;14.68;100.00;96959.28;6151027;23;20013;-60
2022/10/06 09:34:34;;;;;;;8.25;4.88;;;;;;;14.84;100.00;96958.75;6176868;23;20035;-65
2022/10/06 09:37:01;;;;;;;10.48;4.28;;;;;;;14.95;100.00;96956.97;6177068;23;20005;-65
2022/10/06 09:39:32;;;;;;;5.05;4.32;;;;;;;14.99;100.00;96958.38;6175982;23;20024;-65
2022/10/06 09:42:02;;;;;;;5.70;4.50;;;;;;;15.09;100.00;96953.06;6176855;23;19997;-65
2022/10/06 09:44:46;;;;;;;7.65;4.20;;;;;;;15.28;98.30;96960.19;6177254;22;20380;-66
2022/10/06 09:47:45;;;;;;;12.25;4.50;;;;;;;15.30;96.56;96958.22;6176990;22;20009;-66
2022/10/06 09:50:19;;;;;;;5.03;3.88;;;;;;;15.39;97.83;96953.88;6174233;23;20062;-65
2022/10/06 09:52:56;;;;;;;6.88;4.25;;;;;;;15.46;97.08;96949.69;6176598;23;20325;-67
2022/10/06 09:55:27;;;;;;;6.78;4.18;;;;;;;15.60;94.92;96943.94;6176971;23;20036;-70
2022/10/06 09:57:57;;;;;;;5.43;4.60;;;;;;;15.60;95.80;96949.25;6176380;23;20431;-70
2022/10/06 10:00:25;;;;;;;4.63;4.22;;;;;;;15.65;94.46;96942.66;6176609;23;19997;-69
2022/10/06 10:02:57;;;;;;;5.40;4.28;;;;;;;15.69;96.16;96944.91;6176549;23;20009;-70
2022/10/06 10:05:24;;;;;;;6.25;4.80;;;;;;;15.84;96.02;96947.09;6176758;23;20069;-69
2022/10/06 10:08:07;;;;;;;5.82;4.95;;;;;;;15.87;94.52;96950.28;6175977;23;20008;-70
2022/10/06 10:10:35;;;;;;;7.35;4.93;;;;;;;15.98;90.80;96940.53;6176237;22;20737;-57
2022/10/06 10:13:02;;;;;;;6.15;4.78;;;;;;;15.98;91.25;96951.97;6176378;22;20115;-70
2022/10/06 10:15:30;;;;;;;6.43;5.10;;;;;;;16.11;88.44;96953.47;6150077;22;20383;-69
2022/10/06 10:17:58;;;;;;;6.97;4.82;;;;;;;15.99;90.92;96948.31;6175370;23;20025;-71
2022/10/06 10:20:23;;;;;;;5.88;4.28;;;;;;;16.03;88.38;96952.38;6176373;23;20342;-71
2022/10/06 10:22:51;;;;;;;5.88;4.22;;;;;;;16.09;90.09;96947.47;6176471;23;20024;-70
2022/10/06 10:25:41;;;;;;;5.38;4.53;;;;;;;16.26;88.38;96944.03;6176907;22;20346;-72
2022/10/06 10:28:18;;;;;;;6.00;4.45;;;;;;;16.31;87.77;96936.47;6176550;22;20047;-60
2022/10/06 10:31:02;;;;;;;4.43;4.03;;;;;;;16.39;86.01;96933.06;6176520;23;20080;-63
2022/10/06 10:33:57;;;;;;;5.90;4.00;;;;;;;16.54;85.88;96933.41;6175776;23;20054;-73
2022/10/06 10:36:33;;;;;;;5.70;4.10;;;;;;;16.66;83.74;96918.06;6176388;23;20431;-71
2022/10/06 10:39:00;;;;;;;4.78;3.47;;;;;;;16.69;85.87;96920.44;6175776;23;20036;-74
2022/10/06 10:41:34;;;;;;;10.02;3.65;;;;;;;16.78;87.37;96925.81;6176533;23;20458;-73
2022/10/06 10:44:12;;;;;;;5.53;3.70;;;;;;;16.95;86.83;96917.00;6176585;23;19997;-74
2022/10/06 10:46:53;;;;;;;3.35;3.13;;;;;;;17.15;84.67;96920.41;6176646;22;20001;-76
2022/10/06 10:49:26;;;;;;;6.45;3.22;;;;;;;17.39;84.40;96912.75;6176122;23;20009;-66
2022/10/06 10:52:08;;;;;;;9.50;4.40;;;;;;;17.55;82.22;96914.69;6175974;23;20346;-74
2022/10/06 10:54:45;;;;;;;3.70;2.88;;;;;;;17.74;82.44;96924.31;6177063;23;20808;-74
2022/10/06 10:57:15;;;;;;;4.38;2.60;;;;;;;17.82;82.00;96926.19;6177630;23;20069;-74
2022/10/06 10:59:56;;;;;;;7.90;2.40;;;;;;;17.94;80.66;96916.94;6177011;23;20001;-74
2022/10/06 11:02:22;;;;;;;2.92;2.20;;;;;;;17.99;82.24;96917.28;6177541;23;20012;-74
2022/10/06 11:04:56;;;;;;;3.67;2.40;;;;;;;18.08;81.65;96914.72;6177618;23;20013;-74
2022/10/06 11:07:37;;;;;;;2.80;2.33;;;;;;;18.25;80.39;96902.28;6177385;23;20013;-61
2022/10/06 11:10:18;;;;;;;3.92;2.28;;;;;;;18.23;77.77;96914.94;6176989;23;20001;-69
2022/10/06 11:12:53;;;;;;;3.35;2.22;;;;;;;18.33;78.92;96908.47;6177432;23;20477;-68
2022/10/06 11:15:46;;;;;;;2.58;2.22;;;;;;;18.43;77.39;96904.81;6177616;23;20001;-68
2022/10/06 11:18:40;;;;;;;3.05;2.17;;;;;;;18.59;77.65;96902.22;6177478;23;20074;-68
2022/10/06 11:21:18;;;;;;;3.08;1.90;;;;;;;18.70;75.25;96890.41;6178002;23;20013;-68
2022/10/06 11:23:59;;;;;;;6.88;2.47;;;;;;;18.72;75.57;96896.41;6177350;23;20085;-68
2022/10/06 11:26:43;;;;;;;2.78;1.80;;;;;;;18.87;73.35;96896.59;6177348;23;20058;-59
2022/10/06 11:29:47;;;;;;;3.05;1.70;;;;;;;18.88;73.79;96897.44;6177210;23;20005;-67
2022/10/06 11:32:50;;;;;;;3.67;1.73;;;;;;;18.97;70.43;96895.63;6177114;23;20001;-68
2022/10/06 11:35:22;;;;;;;3.15;2.03;;;;;;;18.90;72.25;96898.09;6177490;23;20012;-68
2022/10/06 11:38:17;;;;;;;2.85;2.08;;;;;;;19.02;73.24;96886.16;6177163;23;20106;-68
2022/10/06 11:40:55;;;;;;;2.83;1.92;;;;;;;19.10;71.36;96890.63;6177078;23;20004;-68
2022/10/06 11:43:38;;;;;;;2.75;1.77;;;;;;;19.02;71.32;96885.31;6177247;23;20510;-68
2022/10/06 11:46:29;;;;;;;5.32;2.47;;;;;;;18.98;72.60;96884.78;6177324;23;20028;-68
2022/10/06 11:49:28;;;;;;;3.92;1.75;;;;;;;19.03;73.93;96882.47;6176814;23;20004;-65
2022/10/06 11:52:05;;;;;;;5.43;2.08;;;;;;;19.22;71.54;96877.78;6176277;23;20363;-65
2022/10/06 11:54:53;;;;;;;4.68;2.00;;;;;;;19.27;67.10;96869.28;6176153;23;20447;-66
2022/10/06 11:57:21;;;;;;;4.30;2.00;;;;;;;19.14;70.02;96875.13;6149438;22;20001;-65